Del Norte — WDC2280 — position and weather

sailwx.info

Track history (hours):
 
Tides and Currents Weather Stations Pressure Air Temp Water Temp Dewpoint Dewpoint Depression Visibility Wind Speed Wind Dir Waves Ship Positions

Del Norte

Owner: Golden Gate Bridge,Hwy & Transportation District, Larkspur, CA. More information available from US FCC via Universal Licensing System and Coast Guard Vessel Documentation Center.

Last reported at 2017-Aug-17 01:30 UTC. Time now 2017-Aug-17 01:50 UTC.
Position N 37°48' W 122°24'.

Length 48 m.

Type: High speed craft. MMSI: 366990520.

Date/timePositionNaut miles runAvg speedWind from/ knotsBaromVisibWave heightAir tempDewpointWater temp
2017-Aug-17 01:30N 37°48' W 122°24'4 7.6
2017-Aug-17 01:01N 37°51' W 122°25'713.8
2017-Aug-17 00:30N 37°57' W 122°30'1020.9
2017-Aug-17 00:00N 37°48' W 122°24'5 9.6
2017-Aug-16 23:31N 37°52' W 122°25'611.9
2017-Aug-16 23:00N 37°57' W 122°30'1021.1
2017-Aug-16 22:30N 37°48' W 122°24'1018.9
2017-Aug-16 22:00N 37°56' W 122°30'1 1.8
2017-Aug-16 21:30N 37°57' W 122°30'0 0.0
2017-Aug-16 21:00N 37°57' W 122°30'0 0.0
2017-Aug-16 20:30N 37°57' W 122°30'0 0.0
2017-Aug-16 20:00N 37°57' W 122°30'1020.9
2017-Aug-16 19:30N 37°48' W 122°24'4 8.1
2017-Aug-16 19:01N 37°52' W 122°25'713.1
2017-Aug-16 18:30N 37°57' W 122°30'1020.7
2017-Aug-16 18:01N 37°48' W 122°23'510.0
2017-Aug-16 17:31N 37°53' W 122°26'510.5
2017-Aug-16 17:00N 37°57' W 122°30'1 2.6
2017-Aug-16 16:30N 37°56' W 122°29'919.0
2017-Aug-16 16:00N 37°48' W 122°24'918.9
2017-Aug-16 15:30N 37°56' W 122°29'2 3.5
2017-Aug-16 15:01N 37°55' W 122°27'815.9
2017-Aug-16 14:31N 37°48' W 122°23'1020.6
2017-Aug-16 14:00N 37°57' W 122°30'918.4
2017-Aug-16 13:31N 37°50' W 122°23'713.3
2017-Aug-16 13:00N 37°55' W 122°28'2 0.3
2017-Aug-16 04:59N 37°57' W 122°30'1021.5
2017-Aug-16 04:31N 37°48' W 122°24'1019.2
2017-Aug-16 04:00N 37°56' W 122°30'1 1.1
2017-Aug-16 03:31N 37°56' W 122°29'917.9
2017-Aug-16 03:00N 37°48' W 122°24'1019.9
2017-Aug-16 02:30N 37°57' W 122°30'0 0.1
2017-Aug-16 01:55N 37°57' W 122°30'1024.6
2017-Aug-16 01:30N 37°48' W 122°24'3 6.4
2017-Aug-16 01:01N 37°51' W 122°25'714.9
2017-Aug-16 00:30N 37°57' W 122°30'1020.0
2017-Aug-16 00:01N 37°49' W 122°23'4 8.1
2017-Aug-15 23:31N 37°52' W 122°25'611.9
2017-Aug-15 23:00N 37°57' W 122°30'1021.2
2017-Aug-15 22:31N 37°48' W 122°24'1018.8
2017-Aug-15 21:59N 37°56' W 122°30'1 1.7
2017-Aug-15 21:30N 37°57' W 122°31'0 0.0
2017-Aug-15 21:00N 37°57' W 122°31'0 0.0
2017-Aug-15 20:30N 37°57' W 122°31'0 0.0
2017-Aug-15 20:00N 37°57' W 122°31'1020.8
2017-Aug-15 19:30N 37°48' W 122°23'4 8.2
2017-Aug-15 19:01N 37°52' W 122°25'713.1
2017-Aug-15 18:30N 37°57' W 122°30'1020.0
2017-Aug-15 18:01N 37°49' W 122°23'3 6.7
2017-Aug-15 17:31N 37°52' W 122°25'713.4
2017-Aug-15 17:00N 37°57' W 122°30'3 5.3
2017-Aug-15 16:30N 37°55' W 122°28'816.6
2017-Aug-15 16:00N 37°48' W 122°24'917.4
2017-Aug-15 15:31N 37°56' W 122°28'1 2.1
2017-Aug-15 15:00N 37°56' W 122°29'1019.2
2017-Aug-15 14:31N 37°48' W 122°24'1020.8
2017-Aug-15 14:00N 37°57' W 122°30'918.5
2017-Aug-15 13:31N 37°49' W 122°23'713.0
2017-Aug-15 13:00N 37°55' W 122°27'3 5.9
2017-Aug-15 12:30N 37°57' W 122°30'0 0.0
2017-Aug-15 05:00N 37°57' W 122°30'1021.0
2017-Aug-15 04:30N 37°48' W 122°24'1019.4
2017-Aug-15 04:01N 37°56' W 122°30'0 0.1
2017-Aug-15 03:30N 37°56' W 122°29'1019.4
2017-Aug-15 03:01N 37°48' W 122°23'1020.2
2017-Aug-15 02:30N 37°56' W 122°30'0 0.8
2017-Aug-15 02:00N 37°57' W 122°30'1019.2
2017-Aug-15 01:31N 37°49' W 122°23'2 3.6
2017-Aug-15 01:01N 37°51' W 122°24'815.6
2017-Aug-15 00:30N 37°57' W 122°30'1020.9
2017-Aug-15 00:00N 37°48' W 122°24'3 6.3
2017-Aug-14 23:31N 37°51' W 122°24'814.9
2017-Aug-14 23:00N 37°57' W 122°30'1021.1
2017-Aug-14 22:30N 37°48' W 122°24'1019.5
2017-Aug-14 22:00N 37°56' W 122°30'1 1.3
2017-Aug-14 21:30N 37°57' W 122°31'0 0.0
2017-Aug-14 21:00N 37°57' W 122°31'1019.7
2017-Aug-14 20:30N 37°49' W 122°23'3 6.1
2017-Aug-14 20:00N 37°52' W 122°25'713.6
2017-Aug-14 19:30N 37°57' W 122°30'1019.8
2017-Aug-14 19:01N 37°49' W 122°23'611.2
2017-Aug-14 18:30N 37°54' W 122°26'4 8.4
2017-Aug-14 17:59N 37°57' W 122°30'3 5.9
2017-Aug-14 17:30N 37°55' W 122°27'816.6
2017-Aug-14 17:00N 37°48' W 122°24'613.0
2017-Aug-14 16:31N 37°54' W 122°26'4 8.0
2017-Aug-14 16:00N 37°57' W 122°30'1021.0
2017-Aug-14 15:30N 37°48' W 122°24'1019.3
2017-Aug-14 15:00N 37°56' W 122°30'3 6.3
2017-Aug-14 14:31N 37°54' W 122°26'611.0
2017-Aug-14 14:00N 37°49' W 122°24'918.3
2017-Aug-14 13:30N 37°57' W 122°30'0 0.0
2017-Aug-14 13:01N 37°57' W 122°30'  
2017-Aug-12 02:49N 37°57' W 122°30'825.0
2017-Aug-12 02:31N 37°51' W 122°24'1 1.5
2017-Aug-12 02:01N 37°51' W 122°25'713.5
2017-Aug-12 01:29N 37°57' W 122°30'1021.7
2017-Aug-12 01:00N 37°48' W 122°24'611.1
2017-Aug-12 00:31N 37°53' W 122°26'510.0
2017-Aug-12 00:00N 37°57' W 122°30'1020.9
2017-Aug-11 23:30N 37°48' W 122°24'4 7.3
2017-Aug-11 23:00N 37°51' W 122°25'714.0
2017-Aug-11 22:30N 37°57' W 122°30'1021.5
2017-Aug-11 22:00N 37°48' W 122°24'816.4
2017-Aug-11 21:31N 37°55' W 122°28'3 5.3
2017-Aug-11 21:00N 37°57' W 122°31'0 0.0
2017-Aug-11 20:30N 37°57' W 122°31'0 0.0
2017-Aug-11 20:00N 37°57' W 122°31'1020.5
2017-Aug-11 19:31N 37°48' W 122°23'3 6.4
2017-Aug-11 19:01N 37°51' W 122°25'713.8
2017-Aug-11 18:29N 37°57' W 122°30'1021.7
2017-Aug-11 18:01N 37°48' W 122°23'510.5
2017-Aug-11 17:31N 37°53' W 122°26'510.8
2017-Aug-11 17:00N 37°57' W 122°30'3 5.3
2017-Aug-11 16:31N 37°55' W 122°28'816.6
2017-Aug-11 16:00N 37°48' W 122°24'1019.0
2017-Aug-11 15:30N 37°56' W 122°29'0 0.2
2017-Aug-11 15:00N 37°56' W 122°30'1 0.9
2017-Aug-11 14:00N 37°57' W 122°30'816.6
2017-Aug-11 13:31N 37°50' W 122°24'510.7
2017-Aug-11 13:00N 37°55' W 122°27'3 6.1
2017-Aug-11 12:30N 37°57' W 122°30'0 0.0
2017-Aug-11 05:08N 37°57' W 122°30'0 1.8
2017-Aug-11 05:00N 37°56' W 122°30'1020.2
2017-Aug-11 04:31N 37°48' W 122°24'1019.1
2017-Aug-11 04:00N 37°56' W 122°29'1 1.7
2017-Aug-11 03:30N 37°56' W 122°28'917.8
2017-Aug-11 03:01N 37°48' W 122°24'1020.3
2017-Aug-11 02:30N 37°57' W 122°30'0 0.5
2017-Aug-11 02:00N 37°57' W 122°30'1020.8
2017-Aug-11 01:30N 37°48' W 122°24'4 8.3
2017-Aug-11 01:01N 37°52' W 122°25'713.1
2017-Aug-11 00:30N 37°57' W 122°30'1020.9
2017-Aug-11 00:00N 37°48' W 122°24'4 8.0
2017-Aug-10 23:31N 37°52' W 122°25'713.4
2017-Aug-10 23:00N 37°57' W 122°30'1021.0
2017-Aug-10 22:30N 37°48' W 122°24'1019.7
2017-Aug-10 22:00N 37°56' W 122°30'1 1.2
2017-Aug-10 21:30N 37°57' W 122°31'0 0.0
2017-Aug-10 21:00N 37°57' W 122°31'0 0.0
2017-Aug-10 20:30N 37°57' W 122°31'0 0.0
2017-Aug-10 20:00N 37°57' W 122°31'1019.5
2017-Aug-10 19:30N 37°49' W 122°23'3 6.3
2017-Aug-10 19:01N 37°52' W 122°25'611.1
2017-Aug-10 18:26N 37°57' W 122°30'1023.7
2017-Aug-10 18:01N 37°48' W 122°23'611.9
2017-Aug-10 17:30N 37°53' W 122°26'5 9.1
2017-Aug-10 17:00N 37°57' W 122°30'3 5.3
2017-Aug-10 16:30N 37°55' W 122°28'816.4
2017-Aug-10 16:00N 37°48' W 122°24'917.5
2017-Aug-10 15:30N 37°56' W 122°28'1 1.1
2017-Aug-10 15:00N 37°56' W 122°29'918.3
2017-Aug-10 14:31N 37°48' W 122°24'1020.1
2017-Aug-10 13:59N 37°57' W 122°30'918.2
2017-Aug-10 13:31N 37°50' W 122°23'611.6
2017-Aug-10 13:00N 37°55' W 122°27'3 4.7
2017-Aug-10 12:21N 37°57' W 122°30'0 0.0
2017-Aug-10 05:04N 37°57' W 122°30'0 3.5
2017-Aug-10 05:00N 37°57' W 122°30'1020.8
2017-Aug-10 04:30N 37°48' W 122°24'1019.2
2017-Aug-10 04:00N 37°56' W 122°30'2 3.3
2017-Aug-10 03:30N 37°55' W 122°28'816.7
2017-Aug-10 03:00N 37°48' W 122°24'1020.4
2017-Aug-10 02:30N 37°57' W 122°30'0 0.4
2017-Aug-10 01:59N 37°57' W 122°30'1020.2
2017-Aug-10 01:31N 37°49' W 122°23'3 5.2
2017-Aug-10 01:01N 37°51' W 122°25'714.2
2017-Aug-10 00:30N 37°57' W 122°30'917.7
2017-Aug-10 00:01N 37°50' W 122°24'1 1.2
2017-Aug-09 23:31N 37°50' W 122°24'814.3
2017-Aug-09 22:57N 37°57' W 122°30'1023.2
2017-Aug-09 22:30N 37°48' W 122°24'918.4
2017-Aug-09 22:00N 37°56' W 122°29'1 2.9
2017-Aug-09 21:30N 37°57' W 122°31'0 0.0
2017-Aug-09 20:59N 37°57' W 122°31'0 0.0
2017-Aug-09 20:30N 37°57' W 122°31'0 0.0
2017-Aug-09 20:00N 37°57' W 122°31'1019.7
2017-Aug-09 19:31N 37°49' W 122°23'611.6
2017-Aug-09 19:00N 37°54' W 122°27'4 7.8
2017-Aug-09 18:29N 37°57' W 122°30'1021.4
2017-Aug-09 18:01N 37°48' W 122°23'510.1
2017-Aug-09 17:30N 37°53' W 122°26'510.4
2017-Aug-09 17:00N 37°57' W 122°30'3 6.2
2017-Aug-09 16:31N 37°55' W 122°27'815.6
2017-Aug-09 16:00N 37°48' W 122°24'917.3
2017-Aug-09 15:30N 37°56' W 122°28'1 1.2
2017-Aug-09 15:00N 37°56' W 122°29'918.2
2017-Aug-09 14:30N 37°48' W 122°23'1020.7
2017-Aug-09 14:00N 37°57' W 122°30'917.8
2017-Aug-09 13:31N 37°50' W 122°24'713.1
2017-Aug-09 13:00N 37°55' W 122°28'3 5.0
2017-Aug-09 12:30N 37°57' W 122°30'0 0.0
2017-Aug-09 05:00N 37°57' W 122°30'1021.0
2017-Aug-09 04:30N 37°48' W 122°24'1019.5
2017-Aug-09 04:00N 37°56' W 122°30'1 2.8
2017-Aug-09 03:31N 37°56' W 122°28'917.4
2017-Aug-09 03:01N 37°48' W 122°24'1020.1
2017-Aug-09 02:29N 37°57' W 122°30'0 0.2
2017-Aug-09 02:00N 37°57' W 122°30'1020.9
2017-Aug-09 01:30N 37°48' W 122°24'510.6
2017-Aug-09 01:00N 37°53' W 122°26'510.8
2017-Aug-09 00:30N 37°57' W 122°30'1021.0
2017-Aug-09 00:01N 37°48' W 122°24'2 4.9
2017-Aug-08 23:31N 37°50' W 122°24'816.1
2017-Aug-08 23:00N 37°57' W 122°30'1020.9
2017-Aug-08 22:30N 37°48' W 122°24'918.4
2017-Aug-08 22:01N 37°56' W 122°29'2 3.1
2017-Aug-08 21:30N 37°57' W 122°30'0 0.0
2017-Aug-08 21:00N 37°57' W 122°30'0 0.0
2017-Aug-08 20:30N 37°57' W 122°30'0 0.0
2017-Aug-08 20:00N 37°57' W 122°30'1020.4
2017-Aug-08 19:30N 37°48' W 122°23'4 8.2
2017-Aug-08 19:01N 37°52' W 122°25'612.1
2017-Aug-08 18:30N 37°57' W 122°30'1020.8
2017-Aug-08 18:01N 37°48' W 122°24'5 9.4
2017-Aug-08 17:30N 37°52' W 122°25'611.8
2017-Aug-08 17:00N 37°57' W 122°30'2 5.0
2017-Aug-08 16:30N 37°55' W 122°28'816.6
2017-Aug-08 16:00N 37°48' W 122°24'918.1
2017-Aug-08 15:31N 37°56' W 122°29'1 1.5
2017-Aug-08 15:00N 37°56' W 122°29'1019.3
2017-Aug-08 14:31N 37°48' W 122°24'1020.8
2017-Aug-08 14:00N 37°57' W 122°30'918.1
2017-Aug-08 13:31N 37°50' W 122°23'611.9
2017-Aug-08 13:01N 37°55' W 122°27'3 6.3
2017-Aug-08 12:30N 37°57' W 122°30'0 0.0
2017-Aug-08 04:59N 37°56' W 122°30'1021.1
2017-Aug-08 04:30N 37°48' W 122°24'918.9
2017-Aug-08 04:00N 37°56' W 122°29'0 0.2
2017-Aug-08 03:30N 37°56' W 122°29'1019.1
2017-Aug-08 03:00N 37°48' W 122°23'1020.6
2017-Aug-08 02:30N 37°57' W 122°30'0 0.1
2017-Aug-08 02:00N 37°57' W 122°30'1020.8
2017-Aug-08 01:30N 37°48' W 122°24'3 6.4
2017-Aug-08 01:00N 37°51' W 122°25'714.4
2017-Aug-08 00:30N 37°57' W 122°30'1021.3
2017-Aug-08 00:01N 37°48' W 122°24'4 7.6
2017-Aug-07 23:30N 37°51' W 122°25'713.8
2017-Aug-07 23:00N 37°57' W 122°30'1020.9
2017-Aug-07 22:30N 37°48' W 122°24'918.7
2017-Aug-07 22:00N 37°56' W 122°29'1 2.5
2017-Aug-07 21:30N 37°57' W 122°30'0 0.0
2017-Aug-07 21:00N 37°57' W 122°30'1021.0
2017-Aug-07 20:31N 37°48' W 122°24'611.7
2017-Aug-07 20:00N 37°53' W 122°26'5 9.8
2017-Aug-07 19:30N 37°57' W 122°30'1020.7
2017-Aug-07 19:01N 37°48' W 122°24'4 8.5
2017-Aug-07 18:31N 37°52' W 122°25'612.7
2017-Aug-07 18:00N 37°57' W 122°30'0 0.1
2017-Aug-07 17:30N 37°57' W 122°31'  
Track history (hours):
 
Tides and Currents Weather Stations Pressure Air Temp Water Temp Dewpoint Dewpoint Depression Visibility Wind Speed Wind Dir Waves Ship Positions

Del Norte

Owner: Golden Gate Bridge,Hwy & Transportation District, Larkspur, CA. More information available from US FCC via Universal Licensing System and Coast Guard Vessel Documentation Center.

Last reported at 2017-Aug-17 01:30 UTC. Time now 2017-Aug-17 01:50 UTC.
Position N 37°48' W 122°24'.

Length 48 m.

Type: High speed craft. MMSI: 366990520.

Date/timePositionNaut miles runAvg speedWind from/ knotsBaromVisibWave heightAir tempDewpointWater temp
2017-Aug-17 01:30N 37°48' W 122°24'4 7.6
2017-Aug-17 01:01N 37°51' W 122°25'713.8
2017-Aug-17 00:30N 37°57' W 122°30'1020.9
2017-Aug-17 00:00N 37°48' W 122°24'5 9.6
2017-Aug-16 23:31N 37°52' W 122°25'611.9
2017-Aug-16 23:00N 37°57' W 122°30'1021.1
2017-Aug-16 22:30N 37°48' W 122°24'1018.9
2017-Aug-16 22:00N 37°56' W 122°30'1 1.8
2017-Aug-16 21:30N 37°57' W 122°30'0 0.0
2017-Aug-16 21:00N 37°57' W 122°30'0 0.0
2017-Aug-16 20:30N 37°57' W 122°30'0 0.0
2017-Aug-16 20:00N 37°57' W 122°30'1020.9
2017-Aug-16 19:30N 37°48' W 122°24'4 8.1
2017-Aug-16 19:01N 37°52' W 122°25'713.1
2017-Aug-16 18:30N 37°57' W 122°30'1020.7
2017-Aug-16 18:01N 37°48' W 122°23'510.0
2017-Aug-16 17:31N 37°53' W 122°26'510.5
2017-Aug-16 17:00N 37°57' W 122°30'1 2.6
2017-Aug-16 16:30N 37°56' W 122°29'919.0
2017-Aug-16 16:00N 37°48' W 122°24'918.9
2017-Aug-16 15:30N 37°56' W 122°29'2 3.5
2017-Aug-16 15:01N 37°55' W 122°27'815.9
2017-Aug-16 14:31N 37°48' W 122°23'1020.6
2017-Aug-16 14:00N 37°57' W 122°30'918.4
2017-Aug-16 13:31N 37°50' W 122°23'713.3
2017-Aug-16 13:00N 37°55' W 122°28'2 0.3
2017-Aug-16 04:59N 37°57' W 122°30'1021.5
2017-Aug-16 04:31N 37°48' W 122°24'1019.2
2017-Aug-16 04:00N 37°56' W 122°30'1 1.1
2017-Aug-16 03:31N 37°56' W 122°29'917.9
2017-Aug-16 03:00N 37°48' W 122°24'1019.9
2017-Aug-16 02:30N 37°57' W 122°30'0 0.1
2017-Aug-16 01:55N 37°57' W 122°30'1024.6
2017-Aug-16 01:30N 37°48' W 122°24'3 6.4
2017-Aug-16 01:01N 37°51' W 122°25'714.9
2017-Aug-16 00:30N 37°57' W 122°30'1020.0
2017-Aug-16 00:01N 37°49' W 122°23'4 8.1
2017-Aug-15 23:31N 37°52' W 122°25'611.9
2017-Aug-15 23:00N 37°57' W 122°30'1021.2
2017-Aug-15 22:31N 37°48' W 122°24'1018.8
2017-Aug-15 21:59N 37°56' W 122°30'1 1.7
2017-Aug-15 21:30N 37°57' W 122°31'0 0.0
2017-Aug-15 21:00N 37°57' W 122°31'0 0.0
2017-Aug-15 20:30N 37°57' W 122°31'0 0.0
2017-Aug-15 20:00N 37°57' W 122°31'1020.8
2017-Aug-15 19:30N 37°48' W 122°23'4 8.2
2017-Aug-15 19:01N 37°52' W 122°25'713.1
2017-Aug-15 18:30N 37°57' W 122°30'1020.0
2017-Aug-15 18:01N 37°49' W 122°23'3 6.7
2017-Aug-15 17:31N 37°52' W 122°25'713.4
2017-Aug-15 17:00N 37°57' W 122°30'3 5.3
2017-Aug-15 16:30N 37°55' W 122°28'816.6
2017-Aug-15 16:00N 37°48' W 122°24'917.4
2017-Aug-15 15:31N 37°56' W 122°28'1 2.1
2017-Aug-15 15:00N 37°56' W 122°29'1019.2
2017-Aug-15 14:31N 37°48' W 122°24'1020.8
2017-Aug-15 14:00N 37°57' W 122°30'918.5
2017-Aug-15 13:31N 37°49' W 122°23'713.0
2017-Aug-15 13:00N 37°55' W 122°27'3 5.9
2017-Aug-15 12:30N 37°57' W 122°30'0 0.0
2017-Aug-15 05:00N 37°57' W 122°30'1021.0
2017-Aug-15 04:30N 37°48' W 122°24'1019.4
2017-Aug-15 04:01N 37°56' W 122°30'0 0.1
2017-Aug-15 03:30N 37°56' W 122°29'1019.4
2017-Aug-15 03:01N 37°48' W 122°23'1020.2
2017-Aug-15 02:30N 37°56' W 122°30'0 0.8
2017-Aug-15 02:00N 37°57' W 122°30'1019.2
2017-Aug-15 01:31N 37°49' W 122°23'2 3.6
2017-Aug-15 01:01N 37°51' W 122°24'815.6
2017-Aug-15 00:30N 37°57' W 122°30'1020.9
2017-Aug-15 00:00N 37°48' W 122°24'3 6.3
2017-Aug-14 23:31N 37°51' W 122°24'814.9
2017-Aug-14 23:00N 37°57' W 122°30'1021.1
2017-Aug-14 22:30N 37°48' W 122°24'1019.5
2017-Aug-14 22:00N 37°56' W 122°30'1 1.3
2017-Aug-14 21:30N 37°57' W 122°31'0 0.0
2017-Aug-14 21:00N 37°57' W 122°31'1019.7
2017-Aug-14 20:30N 37°49' W 122°23'3 6.1
2017-Aug-14 20:00N 37°52' W 122°25'713.6
2017-Aug-14 19:30N 37°57' W 122°30'1019.8
2017-Aug-14 19:01N 37°49' W 122°23'611.2
2017-Aug-14 18:30N 37°54' W 122°26'4 8.4
2017-Aug-14 17:59N 37°57' W 122°30'3 5.9
2017-Aug-14 17:30N 37°55' W 122°27'816.6
2017-Aug-14 17:00N 37°48' W 122°24'613.0
2017-Aug-14 16:31N 37°54' W 122°26'4 8.0
2017-Aug-14 16:00N 37°57' W 122°30'1021.0
2017-Aug-14 15:30N 37°48' W 122°24'1019.3
2017-Aug-14 15:00N 37°56' W 122°30'3 6.3
2017-Aug-14 14:31N 37°54' W 122°26'611.0
2017-Aug-14 14:00N 37°49' W 122°24'918.3
2017-Aug-14 13:30N 37°57' W 122°30'0 0.0
2017-Aug-14 13:01N 37°57' W 122°30'  
2017-Aug-12 02:49N 37°57' W 122°30'825.0
2017-Aug-12 02:31N 37°51' W 122°24'1 1.5
2017-Aug-12 02:01N 37°51' W 122°25'713.5
2017-Aug-12 01:29N 37°57' W 122°30'1021.7
2017-Aug-12 01:00N 37°48' W 122°24'611.1
2017-Aug-12 00:31N 37°53' W 122°26'510.0
2017-Aug-12 00:00N 37°57' W 122°30'1020.9
2017-Aug-11 23:30N 37°48' W 122°24'4 7.3
2017-Aug-11 23:00N 37°51' W 122°25'714.0
2017-Aug-11 22:30N 37°57' W 122°30'1021.5
2017-Aug-11 22:00N 37°48' W 122°24'816.4
2017-Aug-11 21:31N 37°55' W 122°28'3 5.3
2017-Aug-11 21:00N 37°57' W 122°31'0 0.0
2017-Aug-11 20:30N 37°57' W 122°31'0 0.0
2017-Aug-11 20:00N 37°57' W 122°31'1020.5
2017-Aug-11 19:31N 37°48' W 122°23'3 6.4
2017-Aug-11 19:01N 37°51' W 122°25'713.8
2017-Aug-11 18:29N 37°57' W 122°30'1021.7
2017-Aug-11 18:01N 37°48' W 122°23'510.5
2017-Aug-11 17:31N 37°53' W 122°26'510.8
2017-Aug-11 17:00N 37°57' W 122°30'3 5.3
2017-Aug-11 16:31N 37°55' W 122°28'816.6
2017-Aug-11 16:00N 37°48' W 122°24'1019.0
2017-Aug-11 15:30N 37°56' W 122°29'0 0.2
2017-Aug-11 15:00N 37°56' W 122°30'1 0.9
2017-Aug-11 14:00N 37°57' W 122°30'816.6
2017-Aug-11 13:31N 37°50' W 122°24'510.7
2017-Aug-11 13:00N 37°55' W 122°27'3 6.1
2017-Aug-11 12:30N 37°57' W 122°30'0 0.0
2017-Aug-11 05:08N 37°57' W 122°30'0 1.8
2017-Aug-11 05:00N 37°56' W 122°30'1020.2
2017-Aug-11 04:31N 37°48' W 122°24'1019.1
2017-Aug-11 04:00N 37°56' W 122°29'1 1.7
2017-Aug-11 03:30N 37°56' W 122°28'917.8
2017-Aug-11 03:01N 37°48' W 122°24'1020.3
2017-Aug-11 02:30N 37°57' W 122°30'0 0.5
2017-Aug-11 02:00N 37°57' W 122°30'1020.8
2017-Aug-11 01:30N 37°48' W 122°24'4 8.3
2017-Aug-11 01:01N 37°52' W 122°25'713.1
2017-Aug-11 00:30N 37°57' W 122°30'1020.9
2017-Aug-11 00:00N 37°48' W 122°24'4 8.0
2017-Aug-10 23:31N 37°52' W 122°25'713.4
2017-Aug-10 23:00N 37°57' W 122°30'1021.0
2017-Aug-10 22:30N 37°48' W 122°24'1019.7
2017-Aug-10 22:00N 37°56' W 122°30'1 1.2
2017-Aug-10 21:30N 37°57' W 122°31'0 0.0
2017-Aug-10 21:00N 37°57' W 122°31'0 0.0
2017-Aug-10 20:30N 37°57' W 122°31'0 0.0
2017-Aug-10 20:00N 37°57' W 122°31'1019.5
2017-Aug-10 19:30N 37°49' W 122°23'3 6.3
2017-Aug-10 19:01N 37°52' W 122°25'611.1
2017-Aug-10 18:26N 37°57' W 122°30'1023.7
2017-Aug-10 18:01N 37°48' W 122°23'611.9
2017-Aug-10 17:30N 37°53' W 122°26'5 9.1
2017-Aug-10 17:00N 37°57' W 122°30'3 5.3
2017-Aug-10 16:30N 37°55' W 122°28'816.4
2017-Aug-10 16:00N 37°48' W 122°24'917.5
2017-Aug-10 15:30N 37°56' W 122°28'1 1.1
2017-Aug-10 15:00N 37°56' W 122°29'918.3
2017-Aug-10 14:31N 37°48' W 122°24'1020.1
2017-Aug-10 13:59N 37°57' W 122°30'918.2
2017-Aug-10 13:31N 37°50' W 122°23'611.6
2017-Aug-10 13:00N 37°55' W 122°27'3 4.7
2017-Aug-10 12:21N 37°57' W 122°30'0 0.0
2017-Aug-10 05:04N 37°57' W 122°30'0 3.5
2017-Aug-10 05:00N 37°57' W 122°30'1020.8
2017-Aug-10 04:30N 37°48' W 122°24'1019.2
2017-Aug-10 04:00N 37°56' W 122°30'2 3.3
2017-Aug-10 03:30N 37°55' W 122°28'816.7
2017-Aug-10 03:00N 37°48' W 122°24'1020.4
2017-Aug-10 02:30N 37°57' W 122°30'0 0.4
2017-Aug-10 01:59N 37°57' W 122°30'1020.2
2017-Aug-10 01:31N 37°49' W 122°23'3 5.2
2017-Aug-10 01:01N 37°51' W 122°25'714.2
2017-Aug-10 00:30N 37°57' W 122°30'917.7
2017-Aug-10 00:01N 37°50' W 122°24'1 1.2
2017-Aug-09 23:31N 37°50' W 122°24'814.3
2017-Aug-09 22:57N 37°57' W 122°30'1023.2
2017-Aug-09 22:30N 37°48' W 122°24'918.4
2017-Aug-09 22:00N 37°56' W 122°29'1 2.9
2017-Aug-09 21:30N 37°57' W 122°31'0 0.0
2017-Aug-09 20:59N 37°57' W 122°31'0 0.0
2017-Aug-09 20:30N 37°57' W 122°31'0 0.0
2017-Aug-09 20:00N 37°57' W 122°31'1019.7
2017-Aug-09 19:31N 37°49' W 122°23'611.6
2017-Aug-09 19:00N 37°54' W 122°27'4 7.8
2017-Aug-09 18:29N 37°57' W 122°30'1021.4
2017-Aug-09 18:01N 37°48' W 122°23'510.1
2017-Aug-09 17:30N 37°53' W 122°26'510.4
2017-Aug-09 17:00N 37°57' W 122°30'3 6.2
2017-Aug-09 16:31N 37°55' W 122°27'815.6
2017-Aug-09 16:00N 37°48' W 122°24'917.3
2017-Aug-09 15:30N 37°56' W 122°28'1 1.2
2017-Aug-09 15:00N 37°56' W 122°29'918.2
2017-Aug-09 14:30N 37°48' W 122°23'1020.7
2017-Aug-09 14:00N 37°57' W 122°30'917.8
2017-Aug-09 13:31N 37°50' W 122°24'713.1
2017-Aug-09 13:00N 37°55' W 122°28'3 5.0
2017-Aug-09 12:30N 37°57' W 122°30'0 0.0
2017-Aug-09 05:00N 37°57' W 122°30'1021.0
2017-Aug-09 04:30N 37°48' W 122°24'1019.5
2017-Aug-09 04:00N 37°56' W 122°30'1 2.8
2017-Aug-09 03:31N 37°56' W 122°28'917.4
2017-Aug-09 03:01N 37°48' W 122°24'1020.1
2017-Aug-09 02:29N 37°57' W 122°30'0 0.2
2017-Aug-09 02:00N 37°57' W 122°30'1020.9
2017-Aug-09 01:30N 37°48' W 122°24'510.6
2017-Aug-09 01:00N 37°53' W 122°26'510.8
2017-Aug-09 00:30N 37°57' W 122°30'1021.0
2017-Aug-09 00:01N 37°48' W 122°24'2 4.9
2017-Aug-08 23:31N 37°50' W 122°24'816.1
2017-Aug-08 23:00N 37°57' W 122°30'1020.9
2017-Aug-08 22:30N 37°48' W 122°24'918.4
2017-Aug-08 22:01N 37°56' W 122°29'2 3.1
2017-Aug-08 21:30N 37°57' W 122°30'0 0.0
2017-Aug-08 21:00N 37°57' W 122°30'0 0.0
2017-Aug-08 20:30N 37°57' W 122°30'0 0.0
2017-Aug-08 20:00N 37°57' W 122°30'1020.4
2017-Aug-08 19:30N 37°48' W 122°23'4 8.2
2017-Aug-08 19:01N 37°52' W 122°25'612.1
2017-Aug-08 18:30N 37°57' W 122°30'1020.8
2017-Aug-08 18:01N 37°48' W 122°24'5 9.4
2017-Aug-08 17:30N 37°52' W 122°25'611.8
2017-Aug-08 17:00N 37°57' W 122°30'2 5.0
2017-Aug-08 16:30N 37°55' W 122°28'816.6
2017-Aug-08 16:00N 37°48' W 122°24'918.1
2017-Aug-08 15:31N 37°56' W 122°29'1 1.5
2017-Aug-08 15:00N 37°56' W 122°29'1019.3
2017-Aug-08 14:31N 37°48' W 122°24'1020.8
2017-Aug-08 14:00N 37°57' W 122°30'918.1
2017-Aug-08 13:31N 37°50' W 122°23'611.9
2017-Aug-08 13:01N 37°55' W 122°27'3 6.3
2017-Aug-08 12:30N 37°57' W 122°30'0 0.0
2017-Aug-08 04:59N 37°56' W 122°30'1021.1
2017-Aug-08 04:30N 37°48' W 122°24'918.9
2017-Aug-08 04:00N 37°56' W 122°29'0 0.2
2017-Aug-08 03:30N 37°56' W 122°29'1019.1
2017-Aug-08 03:00N 37°48' W 122°23'1020.6
2017-Aug-08 02:30N 37°57' W 122°30'0 0.1
2017-Aug-08 02:00N 37°57' W 122°30'1020.8
2017-Aug-08 01:30N 37°48' W 122°24'3 6.4
2017-Aug-08 01:00N 37°51' W 122°25'714.4
2017-Aug-08 00:30N 37°57' W 122°30'1021.3
2017-Aug-08 00:01N 37°48' W 122°24'4 7.6
2017-Aug-07 23:30N 37°51' W 122°25'713.8
2017-Aug-07 23:00N 37°57' W 122°30'1020.9
2017-Aug-07 22:30N 37°48' W 122°24'918.7
2017-Aug-07 22:00N 37°56' W 122°29'1 2.5
2017-Aug-07 21:30N 37°57' W 122°30'0 0.0
2017-Aug-07 21:00N 37°57' W 122°30'1021.0
2017-Aug-07 20:31N 37°48' W 122°24'611.7
2017-Aug-07 20:00N 37°53' W 122°26'5 9.8
2017-Aug-07 19:30N 37°57' W 122°30'1020.7
2017-Aug-07 19:01N 37°48' W 122°24'4 8.5
2017-Aug-07 18:31N 37°52' W 122°25'612.7
2017-Aug-07 18:00N 37°57' W 122°30'0 0.1
2017-Aug-07 17:30N 37°57' W 122°31'  

Dump ship's entire track history